sensor_id;sensor_type;location;lat;lon;timestamp;temperature;humidity
76967;DHT22;65904;52.278;20.972;2023-02-25T00:00:12;4.60;99.90
76967;DHT22;65904;52.278;20.972;2023-02-25T00:03:13;4.50;99.90
76967;DHT22;65904;52.278;20.972;2023-02-25T00:06:03;4.50;99.90
76967;DHT22;65904;52.278;20.972;2023-02-25T00:08:50;4.50;99.90
76967;DHT22;65904;52.278;20.972;2023-02-25T00:11:38;4.50;99.90
76967;DHT22;65904;52.278;20.972;2023-02-25T00:14:24;4.50;99.90
76967;DHT22;65904;52.278;20.972;2023-02-25T00:17:12;4.50;99.90
76967;DHT22;65904;52.278;20.972;2023-02-25T00:19:58;4.40;99.90
76967;DHT22;65904;52.278;20.972;2023-02-25T00:22:45;4.50;99.90
76967;DHT22;65904;52.278;20.972;2023-02-25T00:25:31;4.40;99.90
76967;DHT22;65904;52.278;20.972;2023-02-25T00:28:17;4.40;99.90
76967;DHT22;65904;52.278;20.972;2023-02-25T00:31:06;4.40;99.90
76967;DHT22;65904;52.278;20.972;2023-02-25T00:33:54;4.40;99.90
76967;DHT22;65904;52.278;20.972;2023-02-25T00:36:40;4.50;99.90
76967;DHT22;65904;52.278;20.972;2023-02-25T00:39:26;4.40;99.90
76967;DHT22;65904;52.278;20.972;2023-02-25T00:42:26;4.50;99.90
76967;DHT22;65904;52.278;20.972;2023-02-25T00:45:13;4.50;99.90
76967;DHT22;65904;52.278;20.972;2023-02-25T00:47:59;4.40;99.90
76967;DHT22;65904;52.278;20.972;2023-02-25T00:50:46;4.40;99.90
76967;DHT22;65904;52.278;20.972;2023-02-25T00:53:32;4.50;99.90
76967;DHT22;65904;52.278;20.972;2023-02-25T00:56:18;4.50;99.90
76967;DHT22;65904;52.278;20.972;2023-02-25T00:59:05;4.50;99.90
76967;DHT22;65904;52.278;20.972;2023-02-25T01:01:51;4.50;99.90
76967;DHT22;65904;52.278;20.972;2023-02-25T01:04:37;4.50;99.90
76967;DHT22;65904;52.278;20.972;2023-02-25T01:07:26;4.50;99.90
76967;DHT22;65904;52.278;20.972;2023-02-25T01:10:13;4.50;99.90
76967;DHT22;65904;52.278;20.972;2023-02-25T01:12:59;4.50;99.90
76967;DHT22;65904;52.278;20.972;2023-02-25T01:15:45;4.50;99.90
76967;DHT22;65904;52.278;20.972;2023-02-25T01:18:31;4.40;99.90
76967;DHT22;65904;52.278;20.972;2023-02-25T01:21:19;4.40;99.90
76967;DHT22;65904;52.278;20.972;2023-02-25T01:24:09;4.40;99.90
76967;DHT22;65904;52.278;20.972;2023-02-25T01:26:57;4.40;99.90
76967;DHT22;65904;52.278;20.972;2023-02-25T01:29:44;4.30;99.90
76967;DHT22;65904;52.278;20.972;2023-02-25T01:32:30;4.30;99.90
76967;DHT22;65904;52.278;20.972;2023-02-25T01:35:16;4.40;99.90
76967;DHT22;65904;52.278;20.972;2023-02-25T01:38:02;4.30;99.90
76967;DHT22;65904;52.278;20.972;2023-02-25T01:40:57;4.30;99.90
76967;DHT22;65904;52.278;20.972;2023-02-25T01:44:07;4.20;99.90
76967;DHT22;65904;52.278;20.972;2023-02-25T01:46:53;4.20;99.90
76967;DHT22;65904;52.278;20.972;2023-02-25T01:49:42;4.20;99.90
76967;DHT22;65904;52.278;20.972;2023-02-25T01:52:31;4.20;99.90
76967;DHT22;65904;52.278;20.972;2023-02-25T01:55:18;4.10;99.90
76967;DHT22;65904;52.278;20.972;2023-02-25T01:58:05;4.00;99.90
76967;DHT22;65904;52.278;20.972;2023-02-25T02:00:53;3.90;99.90
76967;DHT22;65904;52.278;20.972;2023-02-25T02:03:40;4.00;99.90
76967;DHT22;65904;52.278;20.972;2023-02-25T02:06:31;4.00;99.90
76967;DHT22;65904;52.278;20.972;2023-02-25T02:09:21;3.90;99.90
76967;DHT22;65904;52.278;20.972;2023-02-25T02:12:09;3.90;99.90
76967;DHT22;65904;52.278;20.972;2023-02-25T02:14:58;3.80;99.90
76967;DHT22;65904;52.278;20.972;2023-02-25T02:17:49;3.80;99.90
76967;DHT22;65904;52.278;20.972;2023-02-25T02:20:43;3.80;99.90
76967;DHT22;65904;52.278;20.972;2023-02-25T02:23:59;3.80;99.90
76967;DHT22;65904;52.278;20.972;2023-02-25T02:26:59;3.80;99.90
76967;DHT22;65904;52.278;20.972;2023-02-25T02:33:10;3.80;99.90
76967;DHT22;65904;52.278;20.972;2023-02-25T02:36:02;3.80;99.90
76967;DHT22;65904;52.278;20.972;2023-02-25T02:38:59;3.90;99.90
76967;DHT22;65904;52.278;20.972;2023-02-25T02:41:51;3.80;99.90
76967;DHT22;65904;52.278;20.972;2023-02-25T02:44:45;3.90;99.90
76967;DHT22;65904;52.278;20.972;2023-02-25T02:47:34;3.80;99.90
76967;DHT22;65904;52.278;20.972;2023-02-25T02:50:28;3.90;99.90
76967;DHT22;65904;52.278;20.972;2023-02-25T02:53:21;3.90;99.90
76967;DHT22;65904;52.278;20.972;2023-02-25T02:56:12;3.90;99.90
76967;DHT22;65904;52.278;20.972;2023-02-25T02:59:03;3.90;99.90
76967;DHT22;65904;52.278;20.972;2023-02-25T03:01:53;3.90;99.90
76967;DHT22;65904;52.278;20.972;2023-02-25T03:04:45;3.90;99.90
76967;DHT22;65904;52.278;20.972;2023-02-25T03:07:37;3.90;99.90
76967;DHT22;65904;52.278;20.972;2023-02-25T03:10:26;3.90;99.90
76967;DHT22;65904;52.278;20.972;2023-02-25T03:13:13;4.00;99.90
76967;DHT22;65904;52.278;20.972;2023-02-25T03:15:59;3.90;99.90
76967;DHT22;65904;52.278;20.972;2023-02-25T03:18:48;3.90;99.90
76967;DHT22;65904;52.278;20.972;2023-02-25T03:21:37;3.90;99.90
76967;DHT22;65904;52.278;20.972;2023-02-25T03:24:28;3.90;99.90
76967;DHT22;65904;52.278;20.972;2023-02-25T03:27:24;3.80;99.90
76967;DHT22;65904;52.278;20.972;2023-02-25T03:30:14;3.70;99.90
76967;DHT22;65904;52.278;20.972;2023-02-25T03:33:04;3.70;99.90
76967;DHT22;65904;52.278;20.972;2023-02-25T03:35:52;3.70;99.90
76967;DHT22;65904;52.278;20.972;2023-02-25T03:38:41;3.60;99.90
76967;DHT22;65904;52.278;20.972;2023-02-25T03:41:35;3.60;99.90
76967;DHT22;65904;52.278;20.972;2023-02-25T03:44:24;3.60;99.90
76967;DHT22;65904;52.278;20.972;2023-02-25T03:47:11;3.60;99.90
76967;DHT22;65904;52.278;20.972;2023-02-25T03:50:02;3.60;99.90
76967;DHT22;65904;52.278;20.972;2023-02-25T03:52:49;3.50;99.90
76967;DHT22;65904;52.278;20.972;2023-02-25T03:55:58;3.40;99.90
76967;DHT22;65904;52.278;20.972;2023-02-25T03:58:50;3.40;99.90
76967;DHT22;65904;52.278;20.972;2023-02-25T04:01:39;3.30;99.90
76967;DHT22;65904;52.278;20.972;2023-02-25T04:04:26;3.30;99.90
76967;DHT22;65904;52.278;20.972;2023-02-25T04:07:12;3.20;99.90
76967;DHT22;65904;52.278;20.972;2023-02-25T04:09:58;3.10;99.90
76967;DHT22;65904;52.278;20.972;2023-02-25T04:12:44;3.10;99.90
76967;DHT22;65904;52.278;20.972;2023-02-25T04:15:32;3.00;99.90
76967;DHT22;65904;52.278;20.972;2023-02-25T04:18:18;2.90;99.90
76967;DHT22;65904;52.278;20.972;2023-02-25T04:21:05;2.80;99.90
76967;DHT22;65904;52.278;20.972;2023-02-25T04:23:51;2.80;99.90
76967;DHT22;65904;52.278;20.972;2023-02-25T04:26:37;2.70;99.90
76967;DHT22;65904;52.278;20.972;2023-02-25T04:29:23;2.70;99.90
76967;DHT22;65904;52.278;20.972;2023-02-25T04:32:11;2.70;99.90
76967;DHT22;65904;52.278;20.972;2023-02-25T04:34:57;2.70;99.90
76967;DHT22;65904;52.278;20.972;2023-02-25T04:37:46;2.70;99.90
76967;DHT22;65904;52.278;20.972;2023-02-25T04:40:33;2.70;99.90
76967;DHT22;65904;52.278;20.972;2023-02-25T04:43:19;2.60;99.90
76967;DHT22;65904;52.278;20.972;2023-02-25T04:46:05;2.60;99.90
76967;DHT22;65904;52.278;20.972;2023-02-25T04:48:53;2.60;99.90
76967;DHT22;65904;52.278;20.972;2023-02-25T04:51:39;2.60;99.90
76967;DHT22;65904;52.278;20.972;2023-02-25T04:54:25;2.60;99.90
76967;DHT22;65904;52.278;20.972;2023-02-25T04:57:11;2.60;99.90
76967;DHT22;65904;52.278;20.972;2023-02-25T04:59:58;2.60;99.90
76967;DHT22;65904;52.278;20.972;2023-02-25T05:02:47;2.60;99.90
76967;DHT22;65904;52.278;20.972;2023-02-25T05:05:35;2.50;99.90
76967;DHT22;65904;52.278;20.972;2023-02-25T05:08:21;2.50;99.90
76967;DHT22;65904;52.278;20.972;2023-02-25T05:11:08;2.50;99.90
76967;DHT22;65904;52.278;20.972;2023-02-25T05:13:54;2.50;99.90
76967;DHT22;65904;52.278;20.972;2023-02-25T05:16:41;2.60;99.90
76967;DHT22;65904;52.278;20.972;2023-02-25T05:19:27;2.50;99.90
76967;DHT22;65904;52.278;20.972;2023-02-25T05:22:15;2.60;99.90
76967;DHT22;65904;52.278;20.972;2023-02-25T05:25:01;2.60;99.90
76967;DHT22;65904;52.278;20.972;2023-02-25T05:27:47;2.60;99.90
76967;DHT22;65904;52.278;20.972;2023-02-25T05:30:36;2.60;99.90
76967;DHT22;65904;52.278;20.972;2023-02-25T05:33:22;2.60;99.90
76967;DHT22;65904;52.278;20.972;2023-02-25T05:36:10;2.60;99.90
76967;DHT22;65904;52.278;20.972;2023-02-25T05:38:58;2.70;99.90
76967;DHT22;65904;52.278;20.972;2023-02-25T05:41:48;2.70;99.90
76967;DHT22;65904;52.278;20.972;2023-02-25T05:44:35;2.70;99.90
76967;DHT22;65904;52.278;20.972;2023-02-25T05:47:21;2.80;99.90
76967;DHT22;65904;52.278;20.972;2023-02-25T05:50:08;2.80;99.90
76967;DHT22;65904;52.278;20.972;2023-02-25T05:52:54;2.80;99.90
76967;DHT22;65904;52.278;20.972;2023-02-25T05:55:42;2.80;99.90
76967;DHT22;65904;52.278;20.972;2023-02-25T05:58:29;2.80;99.90
76967;DHT22;65904;52.278;20.972;2023-02-25T06:01:18;2.80;99.90
76967;DHT22;65904;52.278;20.972;2023-02-25T06:04:04;2.80;99.90
76967;DHT22;65904;52.278;20.972;2023-02-25T06:06:50;2.80;99.90
76967;DHT22;65904;52.278;20.972;2023-02-25T06:09:37;2.80;99.90
76967;DHT22;65904;52.278;20.972;2023-02-25T06:12:25;2.80;99.90
76967;DHT22;65904;52.278;20.972;2023-02-25T06:15:11;2.80;99.90
76967;DHT22;65904;52.278;20.972;2023-02-25T06:17:59;2.80;99.90
76967;DHT22;65904;52.278;20.972;2023-02-25T06:20:46;2.80;99.90
76967;DHT22;65904;52.278;20.972;2023-02-25T06:23:33;2.80;99.90
76967;DHT22;65904;52.278;20.972;2023-02-25T06:26:19;2.70;99.90
76967;DHT22;65904;52.278;20.972;2023-02-25T06:29:07;2.70;99.90
76967;DHT22;65904;52.278;20.972;2023-02-25T06:31:54;2.70;99.90
76967;DHT22;65904;52.278;20.972;2023-02-25T06:34:40;2.80;99.90
76967;DHT22;65904;52.278;20.972;2023-02-25T06:37:27;2.70;99.90
76967;DHT22;65904;52.278;20.972;2023-02-25T06:40:13;2.80;99.90
76967;DHT22;65904;52.278;20.972;2023-02-25T06:43:00;2.80;99.90
76967;DHT22;65904;52.278;20.972;2023-02-25T06:45:47;2.90;99.90
76967;DHT22;65904;52.278;20.972;2023-02-25T06:48:34;2.90;99.90
76967;DHT22;65904;52.278;20.972;2023-02-25T06:51:20;2.90;99.90
76967;DHT22;65904;52.278;20.972;2023-02-25T06:54:06;2.90;99.90
76967;DHT22;65904;52.278;20.972;2023-02-25T06:56:53;2.90;99.90
76967;DHT22;65904;52.278;20.972;2023-02-25T06:59:39;2.90;99.90
76967;DHT22;65904;52.278;20.972;2023-02-25T07:02:27;2.90;99.90
76967;DHT22;65904;52.278;20.972;2023-02-25T07:05:13;2.90;99.90
76967;DHT22;65904;52.278;20.972;2023-02-25T07:07:59;2.90;99.90
76967;DHT22;65904;52.278;20.972;2023-02-25T07:10:45;2.90;99.90
76967;DHT22;65904;52.278;20.972;2023-02-25T07:13:31;2.90;99.90
76967;DHT22;65904;52.278;20.972;2023-02-25T07:16:17;2.90;99.90
76967;DHT22;65904;52.278;20.972;2023-02-25T07:19:05;3.00;99.90
76967;DHT22;65904;52.278;20.972;2023-02-25T07:21:52;3.00;99.90
76967;DHT22;65904;52.278;20.972;2023-02-25T07:24:38;3.00;99.90
76967;DHT22;65904;52.278;20.972;2023-02-25T07:27:24;3.00;99.90
76967;DHT22;65904;52.278;20.972;2023-02-25T07:30:11;3.00;99.90
76967;DHT22;65904;52.278;20.972;2023-02-25T07:32:58;3.00;99.90
76967;DHT22;65904;52.278;20.972;2023-02-25T07:35:45;3.10;99.90
76967;DHT22;65904;52.278;20.972;2023-02-25T07:38:33;3.10;99.90
76967;DHT22;65904;52.278;20.972;2023-02-25T07:41:19;3.20;99.90
76967;DHT22;65904;52.278;20.972;2023-02-25T07:44:06;3.20;99.90
76967;DHT22;65904;52.278;20.972;2023-02-25T07:46:53;3.20;99.90
76967;DHT22;65904;52.278;20.972;2023-02-25T07:49:39;3.20;99.90
76967;DHT22;65904;52.278;20.972;2023-02-25T07:52:27;3.20;99.90
76967;DHT22;65904;52.278;20.972;2023-02-25T07:55:13;3.20;99.90
76967;DHT22;65904;52.278;20.972;2023-02-25T07:57:59;3.20;99.90
76967;DHT22;65904;52.278;20.972;2023-02-25T08:00:45;3.30;99.90
76967;DHT22;65904;52.278;20.972;2023-02-25T08:03:32;3.40;99.90
76967;DHT22;65904;52.278;20.972;2023-02-25T08:06:18;3.40;99.90
76967;DHT22;65904;52.278;20.972;2023-02-25T08:09:08;3.40;99.90
76967;DHT22;65904;52.278;20.972;2023-02-25T08:11:56;3.40;99.90
76967;DHT22;65904;52.278;20.972;2023-02-25T08:14:42;3.50;99.90
76967;DHT22;65904;52.278;20.972;2023-02-25T08:17:32;3.60;99.90
76967;DHT22;65904;52.278;20.972;2023-02-25T08:20:19;3.60;99.90
76967;DHT22;65904;52.278;20.972;2023-02-25T08:23:05;3.60;99.90
76967;DHT22;65904;52.278;20.972;2023-02-25T08:25:53;3.60;99.90
76967;DHT22;65904;52.278;20.972;2023-02-25T08:28:40;3.60;99.90
76967;DHT22;65904;52.278;20.972;2023-02-25T08:31:26;3.70;99.90
76967;DHT22;65904;52.278;20.972;2023-02-25T08:34:12;3.70;99.90
76967;DHT22;65904;52.278;20.972;2023-02-25T08:36:58;3.80;99.90
76967;DHT22;65904;52.278;20.972;2023-02-25T08:39:44;3.80;99.90
76967;DHT22;65904;52.278;20.972;2023-02-25T08:42:31;3.90;99.90
76967;DHT22;65904;52.278;20.972;2023-02-25T08:45:18;3.90;99.90
76967;DHT22;65904;52.278;20.972;2023-02-25T08:48:05;3.90;99.90
76967;DHT22;65904;52.278;20.972;2023-02-25T08:50:51;3.90;99.90
76967;DHT22;65904;52.278;20.972;2023-02-25T08:53:40;3.90;99.90
76967;DHT22;65904;52.278;20.972;2023-02-25T08:56:26;3.90;99.90
76967;DHT22;65904;52.278;20.972;2023-02-25T08:59:15;3.90;99.90
76967;DHT22;65904;52.278;20.972;2023-02-25T09:02:02;4.00;99.90
76967;DHT22;65904;52.278;20.972;2023-02-25T09:04:50;4.00;99.90
76967;DHT22;65904;52.278;20.972;2023-02-25T09:07:36;4.10;99.90
76967;DHT22;65904;52.278;20.972;2023-02-25T09:10:22;4.10;99.90
76967;DHT22;65904;52.278;20.972;2023-02-25T09:13:08;4.10;99.90
76967;DHT22;65904;52.278;20.972;2023-02-25T09:15:57;4.20;99.90
76967;DHT22;65904;52.278;20.972;2023-02-25T09:18:43;4.30;99.90
76967;DHT22;65904;52.278;20.972;2023-02-25T09:21:29;4.40;99.90
76967;DHT22;65904;52.278;20.972;2023-02-25T09:24:16;4.50;99.90
76967;DHT22;65904;52.278;20.972;2023-02-25T09:27:03;4.60;99.90
76967;DHT22;65904;52.278;20.972;2023-02-25T09:29:52;4.70;99.90
76967;DHT22;65904;52.278;20.972;2023-02-25T09:32:39;4.80;99.90
76967;DHT22;65904;52.278;20.972;2023-02-25T09:35:25;5.00;99.90
76967;DHT22;65904;52.278;20.972;2023-02-25T09:38:11;5.20;99.90
76967;DHT22;65904;52.278;20.972;2023-02-25T09:40:57;5.30;99.90
76967;DHT22;65904;52.278;20.972;2023-02-25T09:43:44;5.30;99.90
76967;DHT22;65904;52.278;20.972;2023-02-25T09:46:32;5.30;99.90
76967;DHT22;65904;52.278;20.972;2023-02-25T09:49:26;5.10;99.90
76967;DHT22;65904;52.278;20.972;2023-02-25T09:52:15;4.90;99.90
76967;DHT22;65904;52.278;20.972;2023-02-25T09:55:09;4.70;99.90
76967;DHT22;65904;52.278;20.972;2023-02-25T09:58:05;4.70;99.90
76967;DHT22;65904;52.278;20.972;2023-02-25T10:00:58;4.80;99.90
76967;DHT22;65904;52.278;20.972;2023-02-25T10:03:51;5.00;99.90
76967;DHT22;65904;52.278;20.972;2023-02-25T10:06:42;5.20;99.90
76967;DHT22;65904;52.278;20.972;2023-02-25T10:09:38;5.20;99.90
76967;DHT22;65904;52.278;20.972;2023-02-25T10:12:33;5.20;99.90
76967;DHT22;65904;52.278;20.972;2023-02-25T10:15:29;5.10;99.90
76967;DHT22;65904;52.278;20.972;2023-02-25T10:18:30;5.10;99.90
76967;DHT22;65904;52.278;20.972;2023-02-25T10:21:25;5.00;99.90
76967;DHT22;65904;52.278;20.972;2023-02-25T10:24:24;5.10;99.90
76967;DHT22;65904;52.278;20.972;2023-02-25T10:27:19;5.10;99.90
76967;DHT22;65904;52.278;20.972;2023-02-25T10:30:11;5.10;99.90
76967;DHT22;65904;52.278;20.972;2023-02-25T10:33:02;5.10;99.90
76967;DHT22;65904;52.278;20.972;2023-02-25T10:35:53;4.90;99.90
76967;DHT22;65904;52.278;20.972;2023-02-25T10:38:42;4.50;99.90
76967;DHT22;65904;52.278;20.972;2023-02-25T10:41:30;4.20;99.90
76967;DHT22;65904;52.278;20.972;2023-02-25T10:44:16;3.50;99.90
76967;DHT22;65904;52.278;20.972;2023-02-25T10:47:04;3.20;99.90
76967;DHT22;65904;52.278;20.972;2023-02-25T10:50:11;3.10;99.90
76967;DHT22;65904;52.278;20.972;2023-02-25T10:53:01;3.20;99.90
76967;DHT22;65904;52.278;20.972;2023-02-25T10:55:48;3.30;99.90
76967;DHT22;65904;52.278;20.972;2023-02-25T10:58:42;3.40;99.90
76967;DHT22;65904;52.278;20.972;2023-02-25T11:01:35;3.50;99.90
76967;DHT22;65904;52.278;20.972;2023-02-25T11:04:24;3.60;99.90
76967;DHT22;65904;52.278;20.972;2023-02-25T11:07:26;3.80;99.90
76967;DHT22;65904;52.278;20.972;2023-02-25T11:10:16;3.90;99.90
76967;DHT22;65904;52.278;20.972;2023-02-25T11:13:03;4.00;99.90
76967;DHT22;65904;52.278;20.972;2023-02-25T11:15:51;4.20;99.90
76967;DHT22;65904;52.278;20.972;2023-02-25T11:18:38;4.30;99.90
76967;DHT22;65904;52.278;20.972;2023-02-25T11:21:30;4.40;99.90
76967;DHT22;65904;52.278;20.972;2023-02-25T11:24:21;4.40;99.90
76967;DHT22;65904;52.278;20.972;2023-02-25T11:27:25;4.60;99.90
76967;DHT22;65904;52.278;20.972;2023-02-25T11:30:16;4.80;99.90
76967;DHT22;65904;52.278;20.972;2023-02-25T11:33:20;4.80;99.90
76967;DHT22;65904;52.278;20.972;2023-02-25T11:36:09;4.70;99.90
76967;DHT22;65904;52.278;20.972;2023-02-25T11:39:05;4.50;99.90
76967;DHT22;65904;52.278;20.972;2023-02-25T11:41:53;4.30;99.90
76967;DHT22;65904;52.278;20.972;2023-02-25T11:44:41;4.10;99.90
76967;DHT22;65904;52.278;20.972;2023-02-25T11:47:30;4.40;99.90
76967;DHT22;65904;52.278;20.972;2023-02-25T11:50:20;5.00;99.90
76967;DHT22;65904;52.278;20.972;2023-02-25T11:53:16;5.80;99.90
76967;DHT22;65904;52.278;20.972;2023-02-25T11:56:13;6.60;99.90
76967;DHT22;65904;52.278;20.972;2023-02-25T11:59:12;6.70;99.40
76967;DHT22;65904;52.278;20.972;2023-02-25T12:02:19;6.50;99.70
76967;DHT22;65904;52.278;20.972;2023-02-25T12:05:44;6.10;99.90
76967;DHT22;65904;52.278;20.972;2023-02-25T12:08:42;5.90;99.90
76967;DHT22;65904;52.278;20.972;2023-02-25T12:25:22;5.50;99.90
76967;DHT22;65904;52.278;20.972;2023-02-25T12:28:31;5.40;99.60
76967;DHT22;65904;52.278;20.972;2023-02-25T12:35:23;5.20;99.90
76967;DHT22;65904;52.278;20.972;2023-02-25T12:41:38;5.00;99.90
76967;DHT22;65904;52.278;20.972;2023-02-25T12:44:50;4.90;99.90
76967;DHT22;65904;52.278;20.972;2023-02-25T12:47:51;4.70;99.90
76967;DHT22;65904;52.278;20.972;2023-02-25T12:50:59;4.60;99.90
76967;DHT22;65904;52.278;20.972;2023-02-25T12:53:56;4.60;99.90
76967;DHT22;65904;52.278;20.972;2023-02-25T12:57:08;4.50;99.90
76967;DHT22;65904;52.278;20.972;2023-02-25T13:03:26;4.30;99.90
76967;DHT22;65904;52.278;20.972;2023-02-25T13:06:33;4.10;99.90
76967;DHT22;65904;52.278;20.972;2023-02-25T13:09:46;3.90;99.90
76967;DHT22;65904;52.278;20.972;2023-02-25T13:12:52;3.80;99.90
76967;DHT22;65904;52.278;20.972;2023-02-25T13:15:48;3.80;99.90
76967;DHT22;65904;52.278;20.972;2023-02-25T13:18:42;3.90;99.90
76967;DHT22;65904;52.278;20.972;2023-02-25T13:21:51;4.00;99.90
76967;DHT22;65904;52.278;20.972;2023-02-25T13:24:45;4.20;99.90
76967;DHT22;65904;52.278;20.972;2023-02-25T13:30:45;5.60;99.90
76967;DHT22;65904;52.278;20.972;2023-02-25T13:33:47;7.10;99.40
76967;DHT22;65904;52.278;20.972;2023-02-25T13:36:50;7.10;97.80
76967;DHT22;65904;52.278;20.972;2023-02-25T13:39:48;7.00;98.00
76967;DHT22;65904;52.278;20.972;2023-02-25T13:43:06;6.50;98.60
76967;DHT22;65904;52.278;20.972;2023-02-25T13:46:20;6.20;99.20
76967;DHT22;65904;52.278;20.972;2023-02-25T13:49:29;5.70;99.90
76967;DHT22;65904;52.278;20.972;2023-02-25T13:52:24;5.40;99.90
76967;DHT22;65904;52.278;20.972;2023-02-25T13:55:24;5.30;99.90
76967;DHT22;65904;52.278;20.972;2023-02-25T13:58:30;4.90;99.90
76967;DHT22;65904;52.278;20.972;2023-02-25T14:01:39;4.70;99.90
76967;DHT22;65904;52.278;20.972;2023-02-25T14:05:07;4.60;99.90
76967;DHT22;65904;52.278;20.972;2023-02-25T14:08:15;4.50;99.90
76967;DHT22;65904;52.278;20.972;2023-02-25T14:11:11;6.60;99.90
76967;DHT22;65904;52.278;20.972;2023-02-25T14:17:18;7.20;97.80
76967;DHT22;65904;52.278;20.972;2023-02-25T14:20:14;6.80;98.50
76967;DHT22;65904;52.278;20.972;2023-02-25T14:23:03;6.30;98.50
76967;DHT22;65904;52.278;20.972;2023-02-25T14:25:57;5.80;99.60
76967;DHT22;65904;52.278;20.972;2023-02-25T14:28:55;5.40;99.90
76967;DHT22;65904;52.278;20.972;2023-02-25T14:31:45;5.10;99.90
76967;DHT22;65904;52.278;20.972;2023-02-25T14:34:45;5.00;99.90
76967;DHT22;65904;52.278;20.972;2023-02-25T14:37:41;4.80;99.90
76967;DHT22;65904;52.278;20.972;2023-02-25T14:40:33;4.70;99.90
76967;DHT22;65904;52.278;20.972;2023-02-25T14:43:29;4.70;99.90
76967;DHT22;65904;52.278;20.972;2023-02-25T14:46:21;4.50;99.90
76967;DHT22;65904;52.278;20.972;2023-02-25T14:49:12;4.50;99.90
76967;DHT22;65904;52.278;20.972;2023-02-25T14:52:05;4.40;99.90
76967;DHT22;65904;52.278;20.972;2023-02-25T14:55:16;4.30;99.90
76967;DHT22;65904;52.278;20.972;2023-02-25T14:58:29;4.30;99.90
76967;DHT22;65904;52.278;20.972;2023-02-25T15:01:51;4.20;99.90
76967;DHT22;65904;52.278;20.972;2023-02-25T15:08:06;4.00;99.90
76967;DHT22;65904;52.278;20.972;2023-02-25T15:11:29;3.80;99.90
76967;DHT22;65904;52.278;20.972;2023-02-25T15:14:39;3.60;99.90
76967;DHT22;65904;52.278;20.972;2023-02-25T15:20:34;3.50;99.90
76967;DHT22;65904;52.278;20.972;2023-02-25T15:23:40;3.60;99.90
76967;DHT22;65904;52.278;20.972;2023-02-25T15:26:39;3.60;99.90
76967;DHT22;65904;52.278;20.972;2023-02-25T15:29:47;3.60;99.90
76967;DHT22;65904;52.278;20.972;2023-02-25T15:33:06;3.70;99.90
76967;DHT22;65904;52.278;20.972;2023-02-25T15:36:00;3.70;99.90
76967;DHT22;65904;52.278;20.972;2023-02-25T15:38:48;3.70;99.90
76967;DHT22;65904;52.278;20.972;2023-02-25T15:41:42;3.70;99.90
76967;DHT22;65904;52.278;20.972;2023-02-25T15:44:38;3.70;99.90
76967;DHT22;65904;52.278;20.972;2023-02-25T15:47:27;3.70;99.90
76967;DHT22;65904;52.278;20.972;2023-02-25T15:50:49;3.60;99.90
76967;DHT22;65904;52.278;20.972;2023-02-25T15:53:42;3.70;99.90
76967;DHT22;65904;52.278;20.972;2023-02-25T15:56:45;3.60;99.90
76967;DHT22;65904;52.278;20.972;2023-02-25T15:59:40;3.60;99.90
76967;DHT22;65904;52.278;20.972;2023-02-25T16:02:33;3.60;99.90
76967;DHT22;65904;52.278;20.972;2023-02-25T16:05:27;3.60;99.90
76967;DHT22;65904;52.278;20.972;2023-02-25T16:08:17;3.60;99.90
76967;DHT22;65904;52.278;20.972;2023-02-25T16:11:22;3.60;99.90
76967;DHT22;65904;52.278;20.972;2023-02-25T16:14:29;3.50;99.90
76967;DHT22;65904;52.278;20.972;2023-02-25T16:17:18;3.30;99.90
76967;DHT22;65904;52.278;20.972;2023-02-25T16:20:08;3.20;99.90
76967;DHT22;65904;52.278;20.972;2023-02-25T16:22:56;3.20;99.90
76967;DHT22;65904;52.278;20.972;2023-02-25T16:25:46;3.20;99.90
76967;DHT22;65904;52.278;20.972;2023-02-25T16:28:36;3.20;99.90
76967;DHT22;65904;52.278;20.972;2023-02-25T16:31:28;3.20;99.90
76967;DHT22;65904;52.278;20.972;2023-02-25T16:34:16;3.10;99.90
76967;DHT22;65904;52.278;20.972;2023-02-25T16:37:05;3.10;99.90
76967;DHT22;65904;52.278;20.972;2023-02-25T16:39:53;3.10;99.90
76967;DHT22;65904;52.278;20.972;2023-02-25T16:42:39;3.10;99.90
76967;DHT22;65904;52.278;20.972;2023-02-25T16:45:26;3.10;99.90
76967;DHT22;65904;52.278;20.972;2023-02-25T16:48:14;3.00;99.90
76967;DHT22;65904;52.278;20.972;2023-02-25T16:51:06;3.10;99.90
76967;DHT22;65904;52.278;20.972;2023-02-25T16:53:53;3.10;99.90
76967;DHT22;65904;52.278;20.972;2023-02-25T16:56:42;3.10;99.90
76967;DHT22;65904;52.278;20.972;2023-02-25T16:59:30;3.10;99.90
76967;DHT22;65904;52.278;20.972;2023-02-25T17:02:21;3.20;99.90
76967;DHT22;65904;52.278;20.972;2023-02-25T17:05:09;3.10;99.90
76967;DHT22;65904;52.278;20.972;2023-02-25T17:08:12;3.10;99.90
76967;DHT22;65904;52.278;20.972;2023-02-25T17:10:59;3.10;99.90
76967;DHT22;65904;52.278;20.972;2023-02-25T17:13:46;3.10;99.90
76967;DHT22;65904;52.278;20.972;2023-02-25T17:16:34;3.10;99.90
76967;DHT22;65904;52.278;20.972;2023-02-25T17:19:22;3.20;99.90
76967;DHT22;65904;52.278;20.972;2023-02-25T17:22:09;3.20;99.90
76967;DHT22;65904;52.278;20.972;2023-02-25T17:24:55;3.20;99.90
76967;DHT22;65904;52.278;20.972;2023-02-25T17:27:42;3.20;99.90
76967;DHT22;65904;52.278;20.972;2023-02-25T17:30:32;3.10;99.90
76967;DHT22;65904;52.278;20.972;2023-02-25T17:33:20;3.20;99.90
76967;DHT22;65904;52.278;20.972;2023-02-25T17:36:08;3.20;99.90
76967;DHT22;65904;52.278;20.972;2023-02-25T17:38:56;3.20;99.90
76967;DHT22;65904;52.278;20.972;2023-02-25T17:41:43;3.20;99.90
76967;DHT22;65904;52.278;20.972;2023-02-25T17:47:33;3.20;99.90
76967;DHT22;65904;52.278;20.972;2023-02-25T17:50:20;3.10;99.90
76967;DHT22;65904;52.278;20.972;2023-02-25T17:53:15;3.10;99.90
76967;DHT22;65904;52.278;20.972;2023-02-25T17:56:11;3.00;99.90
76967;DHT22;65904;52.278;20.972;2023-02-25T17:58:59;2.90;99.90
76967;DHT22;65904;52.278;20.972;2023-02-25T18:01:46;2.80;99.90
76967;DHT22;65904;52.278;20.972;2023-02-25T18:04:33;2.70;99.90
76967;DHT22;65904;52.278;20.972;2023-02-25T18:07:20;2.60;99.90
76967;DHT22;65904;52.278;20.972;2023-02-25T18:10:43;2.60;99.90
76967;DHT22;65904;52.278;20.972;2023-02-25T18:13:35;2.60;99.90
76967;DHT22;65904;52.278;20.972;2023-02-25T18:16:35;2.50;99.90
76967;DHT22;65904;52.278;20.972;2023-02-25T18:19:36;2.60;99.90
76967;DHT22;65904;52.278;20.972;2023-02-25T18:22:30;2.60;99.90
76967;DHT22;65904;52.278;20.972;2023-02-25T18:25:28;2.60;99.90
76967;DHT22;65904;52.278;20.972;2023-02-25T18:28:17;2.60;99.90
76967;DHT22;65904;52.278;20.972;2023-02-25T18:31:06;2.70;99.90
76967;DHT22;65904;52.278;20.972;2023-02-25T18:33:53;2.70;99.90
76967;DHT22;65904;52.278;20.972;2023-02-25T18:36:39;2.70;99.90
76967;DHT22;65904;52.278;20.972;2023-02-25T18:39:28;2.70;99.90
76967;DHT22;65904;52.278;20.972;2023-02-25T18:42:16;2.80;99.90
76967;DHT22;65904;52.278;20.972;2023-02-25T18:45:11;2.80;99.90